Accueil
METAR-TAF:

METAR-TAF

Aéroports :

Monte Malanotte

Prato Nevoso, Italie

latitude: 44-15N, longitude: 007-48E, altitude: 1741 m

Observation

Le bulletin a été fait il y a 1 heure et 23 minutes, à 17:55 UTC
Vent 4 kt de sud
Température 17°C
Humidité 77%
Pression 1023 hPa
Visibilité: 6000 m

METAR: LIMY 201755Z 17004KT 6000 NSC 17/13 Q1023 RMK FEW FEW200 VAL FOSCHIA VIS MIN 6000

Heure: 21:18 (19:18 UTC)


TAF: absent

Observations et prévisions météorologiques de plus de 4000 aéroports (messages METAR et TAF).

Les stations disponibles sont représentées par des disques jaunes et rouges sur la carte.

Passer la souris dessus pour voir le nom de la station.

Cliquer dessus pour voir les observations et prévisions météorologiques.

Pour changer de carte: cliquez sur les boutons verts avec une croix noire pour zoomer, sur le bouton vert avec un tiret pour effectuer un zoom arrière, ou sur les flèches vertes pour les cartes adjacentes.


METAR-TAF: